Flight Track Log - Related Links

Times and Time Zones

All times are in EDT time to prevent confusion due to time zone crossing. See the UAL6057 flight status page for this flight to view local times or setup timezone preferences in your user account.

Time Position Orientation Groundspeed Altitude Reporting Facility
EDT Latitude Longitude Course Direction KTS MPH feet Rate Location/Type
Sat 07:28:19 PM 39.8833 -104.6167 108° East 172 198 6,000  Level Denver TRACON
Sat 07:29:19 PM 39.8667 -104.5500 108° East 201 231 8,000 1,821 Climbing Denver TRACON
Sat 07:30:11 PM 39.8389 -104.4786 117° Southeast 248 285 9,400 1,737 Climbing Denver Center
Sat 07:31:13 PM 39.8125 -104.3803 109° East 286 329 11,300 1,467 Climbing Denver Center
Sat 07:32:26 PM 39.7983 -104.2542 98° East 330 380 12,700 1,467 Climbing Denver Center
Sat 07:33:28 PM 39.7806 -104.0972 98° East 358 412 14,600 1,756 Climbing Denver Center
Sat 07:34:29 PM 39.7658 -103.9611 98° East 378 435 16,300 1,366 Climbing Denver Center
Sat 07:35:31 PM 39.7497 -103.8208 98° East 405 466 17,400 1,415 Climbing Denver Center
Sat 07:36:32 PM 39.7367 -103.6697 96° East 385 443 19,200 1,854 Climbing Denver Center
Sat 07:37:34 PM 39.7242 -103.5281 96° East 390 449 21,200 1,805 Climbing Denver Center
Sat 07:38:35 PM 39.7131 -103.3875 96° East 388 447 22,900 1,721 Climbing Denver Center
Sat 07:39:36 PM 39.7025 -103.2483 96° East 385 443 24,700 1,610 Climbing Denver Center
Sat 07:40:38 PM 39.6908 -103.1092 96° East 385 443 26,200 1,463 Climbing Denver Center
Sat 07:41:39 PM 39.6794 -102.9686 96° East 387 445 27,700 1,317 Climbing Denver Center
Sat 07:42:41 PM 39.6675 -102.8275 96° East 389 448 28,900 1,268 Climbing Denver Center
Sat 07:43:42 PM 39.6547 -102.6919 97° East 393 452 30,300 1,463 Climbing Denver Center
Sat 07:44:44 PM 39.6408 -102.5353 97° East 391 450 31,900 1,268 Climbing Denver Center
Sat 07:45:45 PM 39.6297 -102.4019 96° East 390 449 32,900 1,171 Climbing Denver Center
Sat 07:46:47 PM 39.6153 -102.2453 97° East 391 450 34,300 1,024 Climbing Denver Center
Sat 07:47:48 PM 39.6033 -102.1136 97° East 385 443 35,000 344 Climbing Denver Center
Sat 07:48:49 PM 39.5889 -101.9508 97° East 404 465 35,000  Level Denver Center
Sat 07:49:51 PM 39.5731 -101.8031 98° East 430 495 35,000  Level Denver Center
Sat 07:50:52 PM 39.5386 -101.6539 107° East 450 518 35,000  Level Denver Center
Sat 07:51:54 PM 39.4961 -101.4775 107° East 459 528 35,000  Level Denver Center
Sat 07:52:55 PM 39.4606 -101.3244 107° East 461 531 35,000  Level Denver Center
Sat 07:53:56 PM 39.4183 -101.1489 107° East 459 528 35,000  Level Denver Center
Sat 07:54:58 PM 39.3822 -100.9969 107° East 464 534 35,000  Level Denver Center
Sat 07:55:59 PM 39.3458 -100.8464 107° East 461 531 35,000  Level Denver Center
Sat 07:57:12 PM 39.3025 -100.6703 108° East 463 533 35,000  Level Denver Center
Sat 07:58:14 PM 39.2533 -100.4697 108° East 462 532 35,000  Level Denver Center
Sat 07:59:16 PM 39.2164 -100.3192 108° East 462 532 35,000  Level Denver Center
Sat 08:00:17 PM 39.1792 -100.1683 108° East 463 533 35,000  Level Denver Center
Sat 08:01:18 PM 39.1356 -99.9947 108° East 458 527 35,000  Level Denver Center
Sat 08:02:20 PM 39.0978 -99.8450 108° East 462 532 35,000  Level Denver Center
Sat 08:03:21 PM 39.0544 -99.6714 108° East 459 528 35,000  Level Denver Center
Sat 08:04:22 PM 39.0153 -99.5228 109° East 457 526 35,000  Level Denver Center
Sat 08:05:24 PM 38.9783 -99.3764 108° East 455 524 35,000  Level Denver Center
Sat 08:06:25 PM 38.9344 -99.2050 108° East 453 521 35,000 443 Level Denver Center
Sat 08:07:26 PM 38.8964 -99.0628 109° East 447 514 35,900 833 Climbing Denver Center
Sat 08:08:49 PM 38.8444 -98.8586 108° East 417 480 37,000 458 Climbing Kansas City Center
Sat 08:09:50 PM 38.8044 -98.7136 109° East 427 491 37,000  Level Kansas City Center
Sat 08:10:51 PM 38.7639 -98.5631 109° East 444 511 37,000  Level Kansas City Center
Sat 08:11:52 PM 38.7236 -98.4086 108° East 454 522 37,000  Level Kansas City Center
Sat 08:12:54 PM 38.6831 -98.2547 109° East 456 525 37,000  Level Kansas City Center
Sat 08:13:55 PM 38.6428 -98.1064 109° East 443 510 37,000  Level Kansas City Center
Sat 08:14:56 PM 38.6036 -97.9628 109° East 429 494 37,000  Level Kansas City Center
Sat 08:15:58 PM 38.5650 -97.8200 109° East 422 486 37,000  Level Kansas City Center
Sat 08:16:59 PM 38.5264 -97.6794 109° East 417 480 37,000  Level Kansas City Center
Sat 08:18:00 PM 38.4881 -97.5400 109° East 415 478 37,000  Level Kansas City Center
Sat 08:19:02 PM 38.4500 -97.4044 110° East 406 467 37,000  Level Kansas City Center
Sat 08:20:03 PM 38.4144 -97.2728 109° East 395 455 37,000  Level Kansas City Center
Sat 08:21:04 PM 38.3786 -97.1475 110° East 380 437 37,000  Level Kansas City Center
Sat 08:22:05 PM 38.3364 -96.9950 109° East 379 436 37,000  Level Kansas City Center
Sat 08:23:07 PM 38.2997 -96.8653 110° East 387 445 37,000  Level Kansas City Center
Sat 08:24:08 PM 38.2611 -96.7306 110° East 400 460 37,000  Level Kansas City Center
Sat 08:25:09 PM 38.2217 -96.5950 110° East 407 468 37,000  Level Kansas City Center
Sat 08:26:11 PM 38.1822 -96.4561 110° East 415 478 37,000  Level Kansas City Center
Sat 08:27:12 PM 38.1406 -96.3158 111° Southeast 423 487 37,000  Level Kansas City Center
Sat 08:28:13 PM 38.1006 -96.1761 110° East 421 484 37,000  Level Kansas City Center
Sat 08:29:14 PM 38.0567 -96.0250 110° East 413 475 37,000  Level Kansas City Center
Sat 08:30:15 PM 38.0178 -95.8922 110° East 419 482 37,000  Level Kansas City Center
Sat 08:31:17 PM 37.9794 -95.7631 111° Southeast 414 476 37,000 -293 Level Kansas City Center
Sat 08:32:18 PM 37.9347 -95.6117 110° East 410 472 36,400 -590 Descending Kansas City Center
Sat 08:33:19 PM 37.8953 -95.4792 111° Southeast 406 467 35,800 -1,230 Descending Kansas City Center
Sat 08:34:20 PM 37.8564 -95.3514 111° Southeast 395 455 33,900 -1,839 Descending Kansas City Center
Sat 08:35:23 PM 37.8175 -95.2222 111° Southeast 392 451 32,000 -1,902 Descending Kansas City Center
Sat 08:36:23 PM 37.7803 -95.0986 111° Southeast 383 441 30,000 -2,083 Descending Kansas City Center
Sat 08:37:24 PM 37.7414 -94.9714 111° Southeast 370 426 27,800 -2,016 Descending Kansas City Center
Sat 08:38:25 PM 37.7072 -94.8606 111° Southeast 361 415 25,900 -1,854 Descending Kansas City Center
Sat 08:39:27 PM 37.6733 -94.7475 111° Southeast 353 406 24,000 -1,902 Descending Kansas City Center
Sat 08:40:28 PM 37.6375 -94.6286 111° Southeast 359 413 22,000 -1,967 Descending Kansas City Center
Sat 08:41:29 PM 37.5992 -94.5094 112° Southeast 362 417 20,000 -2,164 Descending Kansas City Center
Sat 08:42:30 PM 37.5558 -94.3683 111° Southeast 360 414 17,600 -1,967 Descending Kansas City Center
Sat 08:43:31 PM 37.5206 -94.2561 112° Southeast 350 403 16,000 -927 Descending Kansas City Center
Sat 08:44:33 PM 37.4853 -94.1453 112° Southeast 344 396 15,700 -1,122 Descending Kansas City Center
Sat 08:45:34 PM 37.4514 -94.0372 112° Southeast 326 375 13,700 -1,967 Descending Kansas City Center
Sat 08:46:35 PM 37.4222 -93.9419 111° Southeast 304 350 11,700 -1,721 Descending Kansas City Center
Sat 08:47:36 PM 37.3939 -93.8514 111° Southeast 288 331 10,200 -1,623 Descending Kansas City Center
Sat 08:48:37 PM 37.3597 -93.7733 119° Southeast 278 320 8,400 -1,805 Descending Kansas City Center
Sat 08:49:39 PM 37.2994 -93.7228 146° Southeast 266 306 6,500 -1,805 Descending Kansas City Center
Sat 08:50:40 PM 37.2372 -93.6719 147° Southeast 264 304 4,700 -1,721 Descending Kansas City Center
Sat 08:51:41 PM 37.2061 -93.6008 119° Southeast 263 303 3,000 -836 Descending Kansas City Center
Sat 08:52:42 PM 37.2014 -93.5219 94° East 244 281 3,000  Level Kansas City Center
Sat 08:53:43 PM 37.1886 -93.4500 103° East 239 275 3,000  Level Kansas City Center
Sat 08:55:00 PM 37.2333 -93.3833 122° Southeast  Level FlightAware Approximate
Sat 09:02:00 PM 37.2457 -93.3886 122° Southeast  Level Estimated

Login

Don't have an account? Register now (free) for customized features, flight alerts, and more!